Terminal Aerodrome Forecast
Issued by NWS

Home | Current Version | Previous Version | Text Only | Print | Product List | Glossary On
Versions: 1 2 3 4 5 6 7 8 9 10 11 12 13 14 15 16 17 18 19
000
FTAK31 PAJN 260500 RRA
TAFAYA
TAF
PAYA 260543Z 2606/2706 19005KT 4SM -SHSN BR FEW006 BKN012 OVC040
      TEMPO 2606/2609 VRB03KT 1SM -SN BR BKN006 OVC012
     FM261200 VRB03KT P6SM VCSH BKN050
     FM262100 34004KT P6SM SCT050
      AMD LTD TO CLD VIS AND WIND 2606/2610=

USA.gov is the U.S. government's official web portal to all federal, state and local government web resources and services.